sensor_id;sensor_type;location;lat;lon;timestamp;P1;durP1;ratioP1;P2;durP2;ratioP2
16015;SDS011;8112;53.592;10.184;2023-04-25T00:01:34;5.87;;;4.30;;
16015;SDS011;8112;53.592;10.184;2023-04-25T00:06:37;4.47;;;3.97;;
16015;SDS011;8112;53.592;10.184;2023-04-25T00:11:41;6.70;;;4.00;;
16015;SDS011;8112;53.592;10.184;2023-04-25T00:16:45;5.93;;;4.00;;
16015;SDS011;8112;53.592;10.184;2023-04-25T00:21:48;6.30;;;4.30;;
16015;SDS011;8112;53.592;10.184;2023-04-25T00:26:51;7.17;;;4.47;;
16015;SDS011;8112;53.592;10.184;2023-04-25T00:31:53;6.80;;;4.20;;
16015;SDS011;8112;53.592;10.184;2023-04-25T00:36:55;9.00;;;4.40;;
16015;SDS011;8112;53.592;10.184;2023-04-25T00:41:59;9.33;;;4.57;;
16015;SDS011;8112;53.592;10.184;2023-04-25T00:47:02;12.73;;;4.70;;
16015;SDS011;8112;53.592;10.184;2023-04-25T00:52:05;9.87;;;4.60;;
16015;SDS011;8112;53.592;10.184;2023-04-25T00:57:11;12.00;;;4.63;;
16015;SDS011;8112;53.592;10.184;2023-04-25T01:02:13;10.27;;;4.63;;
16015;SDS011;8112;53.592;10.184;2023-04-25T01:07:15;12.80;;;4.53;;
16015;SDS011;8112;53.592;10.184;2023-04-25T01:12:19;16.30;;;5.13;;
16015;SDS011;8112;53.592;10.184;2023-04-25T01:17:21;16.33;;;5.00;;
16015;SDS011;8112;53.592;10.184;2023-04-25T01:22:25;16.13;;;5.07;;
16015;SDS011;8112;53.592;10.184;2023-04-25T01:27:27;12.97;;;4.13;;
16015;SDS011;8112;53.592;10.184;2023-04-25T01:32:29;13.20;;;5.07;;
16015;SDS011;8112;53.592;10.184;2023-04-25T01:37:40;10.60;;;3.63;;
16015;SDS011;8112;53.592;10.184;2023-04-25T01:42:45;17.53;;;4.97;;
16015;SDS011;8112;53.592;10.184;2023-04-25T01:47:47;19.03;;;5.07;;
16015;SDS011;8112;53.592;10.184;2023-04-25T01:52:52;15.80;;;4.47;;
16015;SDS011;8112;53.592;10.184;2023-04-25T01:57:54;17.83;;;5.30;;
16015;SDS011;8112;53.592;10.184;2023-04-25T02:03:07;14.77;;;5.07;;
16015;SDS011;8112;53.592;10.184;2023-04-25T02:08:11;21.10;;;5.07;;
16015;SDS011;8112;53.592;10.184;2023-04-25T02:13:13;14.40;;;4.67;;
16015;SDS011;8112;53.592;10.184;2023-04-25T02:18:37;14.87;;;4.67;;
16015;SDS011;8112;53.592;10.184;2023-04-25T02:23:42;15.03;;;4.93;;
16015;SDS011;8112;53.592;10.184;2023-04-25T02:28:45;12.10;;;5.13;;
16015;SDS011;8112;53.592;10.184;2023-04-25T02:33:48;13.37;;;3.73;;
16015;SDS011;8112;53.592;10.184;2023-04-25T02:38:51;14.10;;;4.70;;
16015;SDS011;8112;53.592;10.184;2023-04-25T02:43:54;12.53;;;3.90;;
16015;SDS011;8112;53.592;10.184;2023-04-25T02:48:57;15.67;;;4.47;;
16015;SDS011;8112;53.592;10.184;2023-04-25T02:54:01;13.83;;;4.10;;
16015;SDS011;8112;53.592;10.184;2023-04-25T02:59:04;12.97;;;4.47;;
16015;SDS011;8112;53.592;10.184;2023-04-25T03:04:07;11.07;;;3.90;;
16015;SDS011;8112;53.592;10.184;2023-04-25T03:09:11;10.53;;;4.77;;
16015;SDS011;8112;53.592;10.184;2023-04-25T03:20:35;12.33;;;3.77;;
16015;SDS011;8112;53.592;10.184;2023-04-25T03:25:41;14.57;;;3.70;;
16015;SDS011;8112;53.592;10.184;2023-04-25T03:30:43;12.43;;;4.00;;
16015;SDS011;8112;53.592;10.184;2023-04-25T03:35:45;14.00;;;4.57;;
16015;SDS011;8112;53.592;10.184;2023-04-25T03:40:52;11.13;;;4.33;;
16015;SDS011;8112;53.592;10.184;2023-04-25T03:46:08;14.80;;;4.30;;
16015;SDS011;8112;53.592;10.184;2023-04-25T03:51:12;13.50;;;4.07;;
16015;SDS011;8112;53.592;10.184;2023-04-25T03:56:19;15.17;;;4.20;;
16015;SDS011;8112;53.592;10.184;2023-04-25T04:01:27;18.30;;;5.37;;
16015;SDS011;8112;53.592;10.184;2023-04-25T04:06:29;12.37;;;3.97;;
16015;SDS011;8112;53.592;10.184;2023-04-25T04:11:41;10.40;;;4.17;;
16015;SDS011;8112;53.592;10.184;2023-04-25T04:16:45;7.83;;;3.70;;
16015;SDS011;8112;53.592;10.184;2023-04-25T04:21:47;12.60;;;4.07;;
16015;SDS011;8112;53.592;10.184;2023-04-25T04:26:51;10.90;;;4.03;;
16015;SDS011;8112;53.592;10.184;2023-04-25T04:32:07;13.30;;;3.53;;
16015;SDS011;8112;53.592;10.184;2023-04-25T04:37:11;8.90;;;3.80;;
16015;SDS011;8112;53.592;10.184;2023-04-25T04:42:16;9.97;;;3.43;;
16015;SDS011;8112;53.592;10.184;2023-04-25T04:47:42;14.00;;;4.20;;
16015;SDS011;8112;53.592;10.184;2023-04-25T04:53:03;11.87;;;3.67;;
16015;SDS011;8112;53.592;10.184;2023-04-25T04:58:19;11.83;;;4.10;;
16015;SDS011;8112;53.592;10.184;2023-04-25T05:03:27;10.10;;;3.23;;
16015;SDS011;8112;53.592;10.184;2023-04-25T05:08:48;9.57;;;3.67;;
16015;SDS011;8112;53.592;10.184;2023-04-25T05:13:54;10.93;;;3.43;;
16015;SDS011;8112;53.592;10.184;2023-04-25T05:19:19;10.23;;;3.00;;
16015;SDS011;8112;53.592;10.184;2023-04-25T05:24:50;12.73;;;3.10;;
16015;SDS011;8112;53.592;10.184;2023-04-25T05:30:17;12.00;;;3.50;;
16015;SDS011;8112;53.592;10.184;2023-04-25T05:35:52;10.07;;;3.47;;
16015;SDS011;8112;53.592;10.184;2023-04-25T05:40:55;14.00;;;3.60;;
16015;SDS011;8112;53.592;10.184;2023-04-25T05:46:33;10.47;;;4.03;;
16015;SDS011;8112;53.592;10.184;2023-04-25T05:51:54;6.43;;;3.23;;
16015;SDS011;8112;53.592;10.184;2023-04-25T05:57:08;12.27;;;3.00;;
16015;SDS011;8112;53.592;10.184;2023-04-25T06:02:12;13.63;;;3.73;;
16015;SDS011;8112;53.592;10.184;2023-04-25T06:07:17;7.93;;;3.33;;
16015;SDS011;8112;53.592;10.184;2023-04-25T06:12:20;13.07;;;3.30;;
16015;SDS011;8112;53.592;10.184;2023-04-25T06:17:25;8.47;;;3.27;;
16015;SDS011;8112;53.592;10.184;2023-04-25T06:22:28;13.30;;;4.07;;
16015;SDS011;8112;53.592;10.184;2023-04-25T06:27:30;16.37;;;4.10;;
16015;SDS011;8112;53.592;10.184;2023-04-25T06:32:38;10.57;;;3.70;;
16015;SDS011;8112;53.592;10.184;2023-04-25T06:37:42;12.37;;;3.17;;
16015;SDS011;8112;53.592;10.184;2023-04-25T06:42:44;10.97;;;3.13;;
16015;SDS011;8112;53.592;10.184;2023-04-25T06:48:07;10.97;;;3.20;;
16015;SDS011;8112;53.592;10.184;2023-04-25T06:53:09;7.00;;;2.67;;
16015;SDS011;8112;53.592;10.184;2023-04-25T06:58:14;10.10;;;3.60;;
16015;SDS011;8112;53.592;10.184;2023-04-25T07:03:31;9.60;;;3.03;;
16015;SDS011;8112;53.592;10.184;2023-04-25T07:08:39;8.43;;;3.23;;
16015;SDS011;8112;53.592;10.184;2023-04-25T07:13:43;7.57;;;2.90;;
16015;SDS011;8112;53.592;10.184;2023-04-25T07:18:47;10.27;;;3.17;;
16015;SDS011;8112;53.592;10.184;2023-04-25T07:23:48;7.23;;;3.23;;
16015;SDS011;8112;53.592;10.184;2023-04-25T07:28:55;11.80;;;2.83;;
16015;SDS011;8112;53.592;10.184;2023-04-25T07:34:01;12.30;;;2.97;;
16015;SDS011;8112;53.592;10.184;2023-04-25T07:39:05;9.57;;;2.70;;
16015;SDS011;8112;53.592;10.184;2023-04-25T07:44:09;6.60;;;2.73;;
16015;SDS011;8112;53.592;10.184;2023-04-25T07:49:19;6.60;;;2.53;;
16015;SDS011;8112;53.592;10.184;2023-04-25T07:54:21;9.83;;;3.00;;
16015;SDS011;8112;53.592;10.184;2023-04-25T07:59:31;10.50;;;3.60;;
16015;SDS011;8112;53.592;10.184;2023-04-25T08:04:38;6.43;;;2.77;;
16015;SDS011;8112;53.592;10.184;2023-04-25T08:09:42;4.20;;;2.37;;
16015;SDS011;8112;53.592;10.184;2023-04-25T08:14:52;8.23;;;2.53;;
16015;SDS011;8112;53.592;10.184;2023-04-25T08:20:00;10.63;;;3.23;;
16015;SDS011;8112;53.592;10.184;2023-04-25T08:25:05;8.83;;;2.50;;
16015;SDS011;8112;53.592;10.184;2023-04-25T08:30:08;10.07;;;3.13;;
16015;SDS011;8112;53.592;10.184;2023-04-25T08:35:14;6.07;;;2.00;;
16015;SDS011;8112;53.592;10.184;2023-04-25T08:40:17;4.73;;;1.60;;
16015;SDS011;8112;53.592;10.184;2023-04-25T08:45:33;4.20;;;1.57;;
16015;SDS011;8112;53.592;10.184;2023-04-25T08:50:38;6.60;;;2.00;;
16015;SDS011;8112;53.592;10.184;2023-04-25T08:55:41;8.23;;;2.27;;
16015;SDS011;8112;53.592;10.184;2023-04-25T09:00:45;6.77;;;2.47;;
16015;SDS011;8112;53.592;10.184;2023-04-25T09:05:50;6.77;;;2.60;;
16015;SDS011;8112;53.592;10.184;2023-04-25T09:10:53;8.30;;;2.63;;
16015;SDS011;8112;53.592;10.184;2023-04-25T09:15:57;8.53;;;2.50;;
16015;SDS011;8112;53.592;10.184;2023-04-25T09:21:35;8.67;;;2.17;;
16015;SDS011;8112;53.592;10.184;2023-04-25T09:26:38;6.40;;;1.97;;
16015;SDS011;8112;53.592;10.184;2023-04-25T09:31:41;5.17;;;1.93;;
16015;SDS011;8112;53.592;10.184;2023-04-25T09:36:48;4.07;;;2.00;;
16015;SDS011;8112;53.592;10.184;2023-04-25T09:42:13;7.60;;;2.27;;
16015;SDS011;8112;53.592;10.184;2023-04-25T09:47:16;6.20;;;2.30;;
16015;SDS011;8112;53.592;10.184;2023-04-25T09:52:21;4.80;;;1.67;;
16015;SDS011;8112;53.592;10.184;2023-04-25T09:57:34;5.07;;;1.63;;
16015;SDS011;8112;53.592;10.184;2023-04-25T10:02:41;3.70;;;1.47;;
16015;SDS011;8112;53.592;10.184;2023-04-25T10:07:59;4.73;;;2.00;;
16015;SDS011;8112;53.592;10.184;2023-04-25T10:13:04;6.93;;;2.30;;
16015;SDS011;8112;53.592;10.184;2023-04-25T10:18:08;7.30;;;2.27;;
16015;SDS011;8112;53.592;10.184;2023-04-25T10:23:12;5.97;;;2.47;;
16015;SDS011;8112;53.592;10.184;2023-04-25T10:28:19;5.33;;;1.67;;
16015;SDS011;8112;53.592;10.184;2023-04-25T10:33:24;8.53;;;1.60;;
16015;SDS011;8112;53.592;10.184;2023-04-25T10:38:35;4.67;;;1.33;;
16015;SDS011;8112;53.592;10.184;2023-04-25T10:43:38;4.17;;;1.10;;
16015;SDS011;8112;53.592;10.184;2023-04-25T10:48:45;5.27;;;1.60;;
16015;SDS011;8112;53.592;10.184;2023-04-25T10:54:01;3.97;;;1.53;;
16015;SDS011;8112;53.592;10.184;2023-04-25T10:59:06;6.97;;;1.77;;
16015;SDS011;8112;53.592;10.184;2023-04-25T11:04:19;4.77;;;1.30;;
16015;SDS011;8112;53.592;10.184;2023-04-25T11:09:26;7.13;;;1.40;;
16015;SDS011;8112;53.592;10.184;2023-04-25T11:14:28;6.03;;;1.47;;
16015;SDS011;8112;53.592;10.184;2023-04-25T11:19:31;6.20;;;1.63;;
16015;SDS011;8112;53.592;10.184;2023-04-25T11:24:37;7.83;;;1.77;;
16015;SDS011;8112;53.592;10.184;2023-04-25T11:29:39;7.43;;;1.93;;
16015;SDS011;8112;53.592;10.184;2023-04-25T11:34:43;6.00;;;1.73;;
16015;SDS011;8112;53.592;10.184;2023-04-25T11:39:48;3.30;;;1.53;;
16015;SDS011;8112;53.592;10.184;2023-04-25T11:44:50;5.60;;;1.53;;
16015;SDS011;8112;53.592;10.184;2023-04-25T11:49:53;3.43;;;1.27;;
16015;SDS011;8112;53.592;10.184;2023-04-25T11:54:57;8.70;;;2.60;;
16015;SDS011;8112;53.592;10.184;2023-04-25T12:00:07;6.23;;;2.37;;
16015;SDS011;8112;53.592;10.184;2023-04-25T12:05:12;7.63;;;2.03;;
16015;SDS011;8112;53.592;10.184;2023-04-25T12:10:18;1.80;;;1.20;;
16015;SDS011;8112;53.592;10.184;2023-04-25T12:15:23;7.97;;;1.63;;
16015;SDS011;8112;53.592;10.184;2023-04-25T12:20:26;6.27;;;1.50;;
16015;SDS011;8112;53.592;10.184;2023-04-25T12:25:36;3.93;;;1.23;;
16015;SDS011;8112;53.592;10.184;2023-04-25T12:30:54;2.83;;;1.20;;
16015;SDS011;8112;53.592;10.184;2023-04-25T12:35:58;3.27;;;1.10;;
16015;SDS011;8112;53.592;10.184;2023-04-25T12:41:08;3.83;;;1.23;;
16015;SDS011;8112;53.592;10.184;2023-04-25T12:46:10;3.73;;;1.10;;
16015;SDS011;8112;53.592;10.184;2023-04-25T12:51:12;3.30;;;2.43;;
16015;SDS011;8112;53.592;10.184;2023-04-25T12:56:16;3.50;;;1.53;;
16015;SDS011;8112;53.592;10.184;2023-04-25T13:01:18;3.63;;;2.00;;
16015;SDS011;8112;53.592;10.184;2023-04-25T13:06:21;3.40;;;1.60;;
16015;SDS011;8112;53.592;10.184;2023-04-25T13:11:25;4.67;;;1.73;;
16015;SDS011;8112;53.592;10.184;2023-04-25T13:16:27;3.27;;;1.50;;
16015;SDS011;8112;53.592;10.184;2023-04-25T13:21:29;4.03;;;1.83;;
16015;SDS011;8112;53.592;10.184;2023-04-25T13:26:33;4.57;;;1.93;;
16015;SDS011;8112;53.592;10.184;2023-04-25T13:31:36;4.10;;;1.57;;
16015;SDS011;8112;53.592;10.184;2023-04-25T13:36:38;4.50;;;1.20;;
16015;SDS011;8112;53.592;10.184;2023-04-25T13:41:41;3.77;;;1.30;;
16015;SDS011;8112;53.592;10.184;2023-04-25T13:46:43;4.97;;;1.53;;
16015;SDS011;8112;53.592;10.184;2023-04-25T13:51:46;3.07;;;1.57;;
16015;SDS011;8112;53.592;10.184;2023-04-25T13:56:50;9.50;;;1.50;;
16015;SDS011;8112;53.592;10.184;2023-04-25T14:01:55;3.23;;;1.40;;
16015;SDS011;8112;53.592;10.184;2023-04-25T14:06:57;5.80;;;2.23;;
16015;SDS011;8112;53.592;10.184;2023-04-25T14:12:02;4.43;;;1.70;;
16015;SDS011;8112;53.592;10.184;2023-04-25T14:17:06;10.03;;;1.90;;
16015;SDS011;8112;53.592;10.184;2023-04-25T14:22:07;7.50;;;1.93;;
16015;SDS011;8112;53.592;10.184;2023-04-25T14:27:11;3.23;;;1.40;;
16015;SDS011;8112;53.592;10.184;2023-04-25T14:32:13;7.57;;;1.60;;
16015;SDS011;8112;53.592;10.184;2023-04-25T14:37:15;6.80;;;1.83;;
16015;SDS011;8112;53.592;10.184;2023-04-25T14:42:26;3.40;;;1.50;;
16015;SDS011;8112;53.592;10.184;2023-04-25T14:47:28;4.67;;;1.50;;
16015;SDS011;8112;53.592;10.184;2023-04-25T14:52:30;4.23;;;1.50;;
16015;SDS011;8112;53.592;10.184;2023-04-25T14:57:33;2.73;;;1.20;;
16015;SDS011;8112;53.592;10.184;2023-04-25T15:02:36;5.07;;;1.73;;
16015;SDS011;8112;53.592;10.184;2023-04-25T15:07:38;9.43;;;2.80;;
16015;SDS011;8112;53.592;10.184;2023-04-25T15:12:42;8.40;;;3.03;;
16015;SDS011;8112;53.592;10.184;2023-04-25T15:17:44;5.20;;;3.10;;
16015;SDS011;8112;53.592;10.184;2023-04-25T15:22:47;4.60;;;2.77;;
16015;SDS011;8112;53.592;10.184;2023-04-25T15:27:51;3.80;;;2.20;;
16015;SDS011;8112;53.592;10.184;2023-04-25T15:32:54;6.03;;;1.60;;
16015;SDS011;8112;53.592;10.184;2023-04-25T15:37:56;4.13;;;1.70;;
16015;SDS011;8112;53.592;10.184;2023-04-25T15:43:00;4.87;;;1.60;;
16015;SDS011;8112;53.592;10.184;2023-04-25T15:48:04;8.87;;;2.00;;
16015;SDS011;8112;53.592;10.184;2023-04-25T15:53:07;5.87;;;1.70;;
16015;SDS011;8112;53.592;10.184;2023-04-25T15:58:10;7.63;;;2.70;;
16015;SDS011;8112;53.592;10.184;2023-04-25T16:03:12;6.20;;;3.60;;
16015;SDS011;8112;53.592;10.184;2023-04-25T16:08:14;1.87;;;1.10;;
16015;SDS011;8112;53.592;10.184;2023-04-25T16:13:17;6.23;;;1.70;;
16015;SDS011;8112;53.592;10.184;2023-04-25T16:18:19;4.00;;;1.70;;
16015;SDS011;8112;53.592;10.184;2023-04-25T16:23:21;5.23;;;1.63;;
16015;SDS011;8112;53.592;10.184;2023-04-25T16:28:25;5.50;;;2.33;;
16015;SDS011;8112;53.592;10.184;2023-04-25T16:33:28;3.77;;;1.40;;
16015;SDS011;8112;53.592;10.184;2023-04-25T16:38:30;4.33;;;1.83;;
16015;SDS011;8112;53.592;10.184;2023-04-25T16:43:35;5.67;;;2.07;;
16015;SDS011;8112;53.592;10.184;2023-04-25T16:48:39;6.33;;;1.77;;
16015;SDS011;8112;53.592;10.184;2023-04-25T16:53:41;6.07;;;2.13;;
16015;SDS011;8112;53.592;10.184;2023-04-25T16:58:45;3.73;;;1.57;;
16015;SDS011;8112;53.592;10.184;2023-04-25T17:03:47;5.87;;;1.50;;
16015;SDS011;8112;53.592;10.184;2023-04-25T17:08:49;6.27;;;1.53;;
16015;SDS011;8112;53.592;10.184;2023-04-25T17:13:52;8.07;;;1.63;;
16015;SDS011;8112;53.592;10.184;2023-04-25T17:18:54;3.30;;;1.20;;
16015;SDS011;8112;53.592;10.184;2023-04-25T17:23:59;6.63;;;2.00;;
16015;SDS011;8112;53.592;10.184;2023-04-25T17:29:07;4.63;;;1.53;;
16015;SDS011;8112;53.592;10.184;2023-04-25T17:34:09;4.47;;;1.73;;
16015;SDS011;8112;53.592;10.184;2023-04-25T17:39:21;4.43;;;1.67;;
16015;SDS011;8112;53.592;10.184;2023-04-25T17:44:26;2.10;;;1.60;;
16015;SDS011;8112;53.592;10.184;2023-04-25T17:49:27;5.00;;;2.20;;
16015;SDS011;8112;53.592;10.184;2023-04-25T17:54:29;5.87;;;1.83;;
16015;SDS011;8112;53.592;10.184;2023-04-25T17:59:33;2.80;;;1.30;;
16015;SDS011;8112;53.592;10.184;2023-04-25T18:04:35;7.13;;;2.00;;
16015;SDS011;8112;53.592;10.184;2023-04-25T18:09:37;4.80;;;1.50;;
16015;SDS011;8112;53.592;10.184;2023-04-25T18:14:41;3.93;;;1.93;;
16015;SDS011;8112;53.592;10.184;2023-04-25T18:19:45;6.37;;;2.13;;
16015;SDS011;8112;53.592;10.184;2023-04-25T18:24:49;5.70;;;1.97;;
16015;SDS011;8112;53.592;10.184;2023-04-25T18:29:52;6.17;;;2.30;;
16015;SDS011;8112;53.592;10.184;2023-04-25T18:34:56;5.00;;;1.67;;
16015;SDS011;8112;53.592;10.184;2023-04-25T18:40:05;6.27;;;2.43;;
16015;SDS011;8112;53.592;10.184;2023-04-25T18:45:12;6.53;;;1.83;;
16015;SDS011;8112;53.592;10.184;2023-04-25T18:50:14;9.23;;;2.30;;
16015;SDS011;8112;53.592;10.184;2023-04-25T18:55:19;6.80;;;2.10;;
16015;SDS011;8112;53.592;10.184;2023-04-25T19:00:23;6.83;;;1.80;;
16015;SDS011;8112;53.592;10.184;2023-04-25T19:05:25;4.97;;;2.37;;
16015;SDS011;8112;53.592;10.184;2023-04-25T19:10:27;4.70;;;2.23;;
16015;SDS011;8112;53.592;10.184;2023-04-25T19:15:34;7.57;;;2.00;;
16015;SDS011;8112;53.592;10.184;2023-04-25T19:20:37;6.00;;;2.17;;
16015;SDS011;8112;53.592;10.184;2023-04-25T19:25:39;4.17;;;2.10;;
16015;SDS011;8112;53.592;10.184;2023-04-25T19:30:43;8.63;;;2.23;;
16015;SDS011;8112;53.592;10.184;2023-04-25T19:35:45;12.00;;;2.33;;
16015;SDS011;8112;53.592;10.184;2023-04-25T19:40:47;6.20;;;2.30;;
16015;SDS011;8112;53.592;10.184;2023-04-25T19:45:51;7.30;;;2.00;;
16015;SDS011;8112;53.592;10.184;2023-04-25T19:50:53;7.43;;;2.13;;
16015;SDS011;8112;53.592;10.184;2023-04-25T19:55:55;4.97;;;2.67;;
16015;SDS011;8112;53.592;10.184;2023-04-25T20:00:58;5.10;;;2.27;;
16015;SDS011;8112;53.592;10.184;2023-04-25T20:06:01;4.43;;;2.47;;
16015;SDS011;8112;53.592;10.184;2023-04-25T20:11:08;9.10;;;2.60;;
16015;SDS011;8112;53.592;10.184;2023-04-25T20:16:12;3.70;;;1.80;;
16015;SDS011;8112;53.592;10.184;2023-04-25T20:21:18;7.07;;;2.30;;
16015;SDS011;8112;53.592;10.184;2023-04-25T20:26:20;5.70;;;2.30;;
16015;SDS011;8112;53.592;10.184;2023-04-25T20:31:24;6.67;;;2.53;;
16015;SDS011;8112;53.592;10.184;2023-04-25T20:36:26;3.90;;;1.77;;
16015;SDS011;8112;53.592;10.184;2023-04-25T20:41:28;5.57;;;2.20;;
16015;SDS011;8112;53.592;10.184;2023-04-25T20:46:32;8.70;;;2.40;;
16015;SDS011;8112;53.592;10.184;2023-04-25T20:51:35;6.27;;;2.33;;
16015;SDS011;8112;53.592;10.184;2023-04-25T20:56:40;8.73;;;3.70;;
16015;SDS011;8112;53.592;10.184;2023-04-25T21:01:44;6.57;;;2.47;;
16015;SDS011;8112;53.592;10.184;2023-04-25T21:06:46;9.30;;;2.33;;
16015;SDS011;8112;53.592;10.184;2023-04-25T21:11:48;6.00;;;2.30;;
16015;SDS011;8112;53.592;10.184;2023-04-25T21:16:52;4.73;;;2.53;;
16015;SDS011;8112;53.592;10.184;2023-04-25T21:21:54;5.90;;;2.00;;
16015;SDS011;8112;53.592;10.184;2023-04-25T21:26:56;8.70;;;2.60;;
16015;SDS011;8112;53.592;10.184;2023-04-25T21:31:59;6.80;;;2.00;;
16015;SDS011;8112;53.592;10.184;2023-04-25T21:37:10;7.47;;;2.73;;
16015;SDS011;8112;53.592;10.184;2023-04-25T21:42:13;6.93;;;2.37;;
16015;SDS011;8112;53.592;10.184;2023-04-25T21:47:16;9.03;;;2.80;;
16015;SDS011;8112;53.592;10.184;2023-04-25T21:52:18;5.70;;;2.10;;
16015;SDS011;8112;53.592;10.184;2023-04-25T21:57:21;5.40;;;2.20;;
16015;SDS011;8112;53.592;10.184;2023-04-25T22:02:24;8.63;;;2.90;;
16015;SDS011;8112;53.592;10.184;2023-04-25T22:07:28;8.40;;;2.83;;
16015;SDS011;8112;53.592;10.184;2023-04-25T22:12:30;5.57;;;1.90;;
16015;SDS011;8112;53.592;10.184;2023-04-25T22:17:34;5.07;;;2.00;;
16015;SDS011;8112;53.592;10.184;2023-04-25T22:22:36;4.00;;;1.63;;
16015;SDS011;8112;53.592;10.184;2023-04-25T22:27:38;4.10;;;1.70;;
16015;SDS011;8112;53.592;10.184;2023-04-25T22:32:44;4.90;;;1.80;;
16015;SDS011;8112;53.592;10.184;2023-04-25T22:37:46;2.53;;;1.50;;
16015;SDS011;8112;53.592;10.184;2023-04-25T22:42:58;1.87;;;1.37;;
16015;SDS011;8112;53.592;10.184;2023-04-25T22:48:04;3.77;;;1.67;;
16015;SDS011;8112;53.592;10.184;2023-04-25T22:53:06;3.90;;;1.50;;
16015;SDS011;8112;53.592;10.184;2023-04-25T22:58:08;1.43;;;1.27;;
16015;SDS011;8112;53.592;10.184;2023-04-25T23:03:11;7.33;;;1.73;;
16015;SDS011;8112;53.592;10.184;2023-04-25T23:08:13;2.83;;;1.20;;
16015;SDS011;8112;53.592;10.184;2023-04-25T23:13:16;3.27;;;1.70;;
16015;SDS011;8112;53.592;10.184;2023-04-25T23:18:19;2.53;;;1.53;;
16015;SDS011;8112;53.592;10.184;2023-04-25T23:23:20;4.87;;;1.90;;
16015;SDS011;8112;53.592;10.184;2023-04-25T23:28:22;5.57;;;1.80;;
16015;SDS011;8112;53.592;10.184;2023-04-25T23:33:25;5.07;;;1.57;;
16015;SDS011;8112;53.592;10.184;2023-04-25T23:38:28;5.13;;;2.20;;
16015;SDS011;8112;53.592;10.184;2023-04-25T23:43:30;3.60;;;1.90;;
16015;SDS011;8112;53.592;10.184;2023-04-25T23:48:33;5.90;;;1.73;;
16015;SDS011;8112;53.592;10.184;2023-04-25T23:53:35;6.77;;;1.90;;
16015;SDS011;8112;53.592;10.184;2023-04-25T23:58:37;6.73;;;1.97;;
